Time;durP1;ratioP1;P1;durP2;ratioP2;P2;SDS_P1;SDS_P2;PMS_P1;PMS_P2;Temp;Humidity;BMP_temperature;BMP_pressure;BME280_temperature;BME280_humidity;BME280_pressure;Samples;Min_cycle;Max_cycle;Signal;HPM_P1;HPM_P2
2023/05/24 00:01:06;;;;;;;4.97;2.80;;;;;;;;;;5088662;28;20103;-76
2023/05/24 00:03:33;;;;;;;3.58;2.70;;;;;;;;;;5088190;28;20796;-76
2023/05/24 00:06:05;;;;;;;6.75;3.13;;;;;;;;;;5088204;28;20035;-76
2023/05/24 00:08:31;;;;;;;5.30;2.78;;;;;;;;;;5088203;28;20494;-77
2023/05/24 00:10:57;;;;;;;4.32;2.80;;;;;;;;;;5088812;28;20028;-77
2023/05/24 00:13:22;;;;;;;4.13;2.67;;;;;;;;;;5088390;28;20017;-75
2023/05/24 00:15:47;;;;;;;4.38;3.00;;;;;;;;;;5088430;28;20826;-76
2023/05/24 00:18:13;;;;;;;4.78;2.70;;;;;;;;;;5088035;28;20023;-75
2023/05/24 00:20:38;;;;;;;5.40;2.65;;;;;;;;;;5088495;28;20024;-74
2023/05/24 00:23:04;;;;;;;4.72;2.90;;;;;;;;;;5090255;28;20012;-75
2023/05/24 00:25:29;;;;;;;4.18;2.83;;;;;;;;;;5088521;28;20124;-75
2023/05/24 00:27:55;;;;;;;3.95;2.70;;;;;;;;;;5088247;28;20409;-75
2023/05/24 00:30:20;;;;;;;5.97;2.60;;;;;;;;;;5086900;28;20093;-76
2023/05/24 00:32:46;;;;;;;3.88;2.80;;;;;;;;;;5088456;28;20423;-76
2023/05/24 00:35:11;;;;;;;7.57;2.88;;;;;;;;;;5088216;28;20636;-74
2023/05/24 00:37:36;;;;;;;4.90;2.80;;;;;;;;;;5087852;28;20069;-74
2023/05/24 00:40:03;;;;;;;4.38;2.67;;;;;;;;;;5087944;28;20058;-73
2023/05/24 00:42:29;;;;;;;4.90;2.70;;;;;;;;;;5088500;28;20093;-73
2023/05/24 00:44:54;;;;;;;4.93;2.80;;;;;;;;;;5088063;28;20471;-73
2023/05/24 00:47:19;;;;;;;6.68;3.17;;;;;;;;;;5088284;28;20012;-73
2023/05/24 00:49:45;;;;;;;3.85;2.67;;;;;;;;;;5099632;28;20362;-73
2023/05/24 00:52:11;;;;;;;4.72;2.85;;;;;;;;;;5099723;28;20027;-75
2023/05/24 00:54:39;;;;;;;4.68;2.72;;;;;;;;;;5098675;28;20103;-73
2023/05/24 00:57:05;;;;;;;5.22;2.80;;;;;;;;;;5098386;28;20077;-75
2023/05/24 00:59:31;;;;;;;4.65;3.05;;;;;;;;;;5099828;28;20020;-73
2023/05/24 01:01:57;;;;;;;4.22;2.83;;;;;;;;;;5099972;28;20118;-73
2023/05/24 01:04:22;;;;;;;4.40;3.00;;;;;;;;;;5099604;28;20040;-73
2023/05/24 01:07:31;;;;;;;5.20;2.90;;;;;;;;;;5099533;28;20027;-72
2023/05/24 01:10:13;;;;;;;4.18;3.08;;;;;;;;;;5099172;28;20028;-73
2023/05/24 01:13:04;;;;;;;4.07;2.78;;;;;;;;;;5099761;28;20228;-73
2023/05/24 01:15:44;;;;;;;8.45;3.05;;;;;;;;;;5099637;28;20046;-73
2023/05/24 01:18:20;;;;;;;4.80;3.23;;;;;;;;;;5099464;28;20027;-74
2023/05/24 01:20:50;;;;;;;4.28;3.17;;;;;;;;;;5099653;28;20016;-74
2023/05/24 01:23:35;;;;;;;5.60;2.73;;;;;;;;;;5099346;28;20026;-74
2023/05/24 01:26:17;;;;;;;4.97;2.85;;;;;;;;;;5099559;28;20341;-73
2023/05/24 01:28:43;;;;;;;4.95;3.20;;;;;;;;;;5100669;28;20386;-74
2023/05/24 01:31:11;;;;;;;4.15;2.90;;;;;;;;;;5103101;28;20091;-74
2023/05/24 01:33:43;;;;;;;5.20;2.97;;;;;;;;;;5103082;28;20030;-74
2023/05/24 01:36:09;;;;;;;4.97;2.92;;;;;;;;;;5102803;28;20128;-75
2023/05/24 01:38:36;;;;;;;4.70;2.70;;;;;;;;;;5102952;28;20286;-75
2023/05/24 01:41:41;;;;;;;5.57;3.50;;;;;;;;;;5102896;28;20330;-75
2023/05/24 01:44:31;;;;;;;4.97;3.28;;;;;;;;;;5079315;28;20373;-75
2023/05/24 01:47:07;;;;;;;5.20;3.15;;;;;;;;;;5097101;28;20032;-74
2023/05/24 01:49:39;;;;;;;4.45;3.13;;;;;;;;;;5102523;28;20024;-74
2023/05/24 01:52:11;;;;;;;5.28;3.20;;;;;;;;;;5102383;28;20024;-73
2023/05/24 01:54:38;;;;;;;5.80;3.20;;;;;;;;;;5102657;28;20066;-74
2023/05/24 01:57:06;;;;;;;5.50;3.30;;;;;;;;;;5102606;28;20074;-75
2023/05/24 01:59:32;;;;;;;4.35;3.00;;;;;;;;;;5102528;28;20028;-74
2023/05/24 02:01:57;;;;;;;5.60;3.17;;;;;;;;;;5102383;28;20061;-74
2023/05/24 02:04:23;;;;;;;5.30;3.50;;;;;;;;;;5101739;28;20320;-74
2023/05/24 02:06:49;;;;;;;4.95;3.38;;;;;;;;;;5101748;28;20031;-75
2023/05/24 02:09:14;;;;;;;6.80;3.42;;;;;;;;;;5101848;28;20012;-75
2023/05/24 02:11:40;;;;;;;5.15;3.50;;;;;;;;;;5101906;28;20035;-75
2023/05/24 02:14:05;;;;;;;5.60;3.30;;;;;;;;;;5102091;28;20027;-74
2023/05/24 02:16:32;;;;;;;5.60;3.38;;;;;;;;;;5101658;28;20051;-74
2023/05/24 02:18:57;;;;;;;5.35;3.65;;;;;;;;;;5101810;28;20038;-74
2023/05/24 02:21:24;;;;;;;5.43;3.42;;;;;;;;;;5101399;28;20020;-75
2023/05/24 02:23:49;;;;;;;4.53;3.17;;;;;;;;;;5101785;28;20028;-73
2023/05/24 02:26:17;;;;;;;6.20;3.22;;;;;;;;;;5101381;28;20031;-74
2023/05/24 02:28:43;;;;;;;5.10;3.53;;;;;;;;;;5098779;28;20316;-75
2023/05/24 02:31:08;;;;;;;6.43;3.55;;;;;;;;;;5101480;28;20016;-74
2023/05/24 02:33:34;;;;;;;7.00;3.60;;;;;;;;;;5101751;28;20212;-76
2023/05/24 02:36:00;;;;;;;5.45;3.50;;;;;;;;;;5101445;28;20042;-74
2023/05/24 02:38:25;;;;;;;5.03;3.67;;;;;;;;;;5101161;28;20193;-74
2023/05/24 02:40:51;;;;;;;6.25;3.03;;;;;;;;;;5101256;28;20093;-75
2023/05/24 02:43:16;;;;;;;5.93;3.65;;;;;;;;;;5101768;28;20079;-75
2023/05/24 02:45:42;;;;;;;9.65;3.88;;;;;;;;;;5101544;28;20085;-76
2023/05/24 02:48:07;;;;;;;5.97;3.65;;;;;;;;;;5101613;28;20409;-76
2023/05/24 02:50:33;;;;;;;6.97;3.83;;;;;;;;;;5098135;28;20051;-76
2023/05/24 02:52:58;;;;;;;6.90;3.83;;;;;;;;;;5089748;28;20020;-76
2023/05/24 02:55:23;;;;;;;8.68;3.90;;;;;;;;;;5089724;28;20508;-76
2023/05/24 02:57:49;;;;;;;6.32;3.55;;;;;;;;;;5089767;28;20016;-75
2023/05/24 03:00:14;;;;;;;6.88;4.00;;;;;;;;;;5089232;28;20368;-75
2023/05/24 03:02:40;;;;;;;7.38;3.97;;;;;;;;;;5089650;28;20034;-75
2023/05/24 03:05:06;;;;;;;6.18;3.65;;;;;;;;;;5089170;28;20071;-74
2023/05/24 03:07:32;;;;;;;8.00;4.10;;;;;;;;;;5087837;28;20093;-75
2023/05/24 03:09:57;;;;;;;6.13;3.70;;;;;;;;;;5089443;28;20031;-74
2023/05/24 03:12:23;;;;;;;7.65;3.65;;;;;;;;;;5089527;28;20056;-74
2023/05/24 03:14:48;;;;;;;5.55;3.95;;;;;;;;;;5087974;28;20028;-74
2023/05/24 03:17:14;;;;;;;8.23;3.83;;;;;;;;;;5088988;28;20507;-74
2023/05/24 03:19:39;;;;;;;5.28;3.85;;;;;;;;;;5089246;28;20101;-74
2023/05/24 03:22:05;;;;;;;7.88;3.90;;;;;;;;;;5088735;28;20032;-75
2023/05/24 03:24:32;;;;;;;6.72;4.10;;;;;;;;;;5089250;28;20020;-74
2023/05/24 03:26:57;;;;;;;7.03;3.45;;;;;;;;;;5089238;28;20089;-74
2023/05/24 03:29:23;;;;;;;6.68;3.85;;;;;;;;;;5089108;28;20606;-74
2023/05/24 03:31:48;;;;;;;5.80;4.05;;;;;;;;;;5089099;28;20395;-74
2023/05/24 03:34:14;;;;;;;7.65;4.28;;;;;;;;;;5088880;28;20020;-73
2023/05/24 03:36:39;;;;;;;6.97;3.78;;;;;;;;;;5088316;28;20044;-74
2023/05/24 03:39:05;;;;;;;6.05;3.80;;;;;;;;;;5088795;28;20463;-76
2023/05/24 03:41:30;;;;;;;13.07;5.07;;;;;;;;;;5088689;28;20024;-74
2023/05/24 03:43:55;;;;;;;10.73;4.32;;;;;;;;;;5088905;28;20024;-74
2023/05/24 03:46:21;;;;;;;6.53;4.25;;;;;;;;;;5088619;28;20039;-74
2023/05/24 03:48:47;;;;;;;7.53;4.55;;;;;;;;;;5088919;28;20028;-74
2023/05/24 03:51:13;;;;;;;8.07;4.47;;;;;;;;;;5087628;28;20024;-74
2023/05/24 03:53:38;;;;;;;8.65;4.68;;;;;;;;;;5088777;28;20099;-75
2023/05/24 03:56:03;;;;;;;7.05;4.05;;;;;;;;;;5087161;28;20032;-75
2023/05/24 03:58:29;;;;;;;7.82;4.13;;;;;;;;;;5087346;28;20024;-75
2023/05/24 04:00:54;;;;;;;7.78;4.30;;;;;;;;;;5088294;28;20496;-74
2023/05/24 04:03:20;;;;;;;5.63;4.35;;;;;;;;;;5088677;28;20023;-75
2023/05/24 04:05:45;;;;;;;6.03;4.00;;;;;;;;;;5088547;28;20132;-74
2023/05/24 04:08:13;;;;;;;6.55;4.00;;;;;;;;;;5088113;28;20031;-75
2023/05/24 04:10:39;;;;;;;5.63;4.00;;;;;;;;;;5088394;28;20451;-74
2023/05/24 04:13:05;;;;;;;9.00;4.75;;;;;;;;;;5088504;28;20044;-75
2023/05/24 04:15:31;;;;;;;5.50;3.85;;;;;;;;;;5088523;28;20024;-74
2023/05/24 04:17:57;;;;;;;7.78;4.10;;;;;;;;;;5088398;28;20058;-74
2023/05/24 04:20:24;;;;;;;7.00;4.43;;;;;;;;;;5088795;28;20061;-73
2023/05/24 04:22:50;;;;;;;7.85;4.22;;;;;;;;;;5087989;28;20211;-74
2023/05/24 04:25:15;;;;;;;6.07;3.97;;;;;;;;;;5088506;28;20024;-74
2023/05/24 04:27:41;;;;;;;5.88;3.70;;;;;;;;;;5088242;28;20364;-73
2023/05/24 04:30:08;;;;;;;8.73;4.00;;;;;;;;;;5086878;28;20509;-74
2023/05/24 04:32:33;;;;;;;7.53;4.25;;;;;;;;;;5088132;28;20028;-76
2023/05/24 04:35:01;;;;;;;8.55;3.92;;;;;;;;;;5088363;28;20050;-75
2023/05/24 04:37:28;;;;;;;6.22;3.92;;;;;;;;;;5086631;28;20025;-73
2023/05/24 04:39:53;;;;;;;6.50;4.20;;;;;;;;;;5088350;28;20028;-74
2023/05/24 04:42:19;;;;;;;6.03;4.03;;;;;;;;;;5088031;28;20020;-74
2023/05/24 04:44:44;;;;;;;6.95;4.40;;;;;;;;;;5088276;28;20030;-74
2023/05/24 04:47:11;;;;;;;5.70;4.22;;;;;;;;;;5087898;28;20537;-73
2023/05/24 04:49:37;;;;;;;5.78;3.92;;;;;;;;;;5088098;28;20414;-75
2023/05/24 04:52:03;;;;;;;8.65;4.63;;;;;;;;;;5087902;28;20411;-74
2023/05/24 04:54:28;;;;;;;6.43;4.43;;;;;;;;;;5088434;28;20507;-75
2023/05/24 04:56:54;;;;;;;7.15;4.63;;;;;;;;;;5087942;28;20103;-72
2023/05/24 04:59:19;;;;;;;7.28;4.80;;;;;;;;;;5089527;28;20032;-76
2023/05/24 05:01:44;;;;;;;9.50;4.65;;;;;;;;;;5087720;28;20476;-75
2023/05/24 05:04:10;;;;;;;7.90;5.22;;;;;;;;;;5091800;28;20466;-75
2023/05/24 05:06:39;;;;;;;9.27;5.32;;;;;;;;;;5090804;28;20063;-74
2023/05/24 05:09:08;;;;;;;7.60;4.80;;;;;;;;;;5091145;28;20028;-76
2023/05/24 05:11:34;;;;;;;10.02;5.20;;;;;;;;;;5088550;28;20019;-75
2023/05/24 05:14:00;;;;;;;6.95;4.75;;;;;;;;;;5091304;28;20016;-75
2023/05/24 05:16:25;;;;;;;8.55;4.70;;;;;;;;;;5091046;28;20043;-75
2023/05/24 05:18:50;;;;;;;6.45;4.68;;;;;;;;;;5090853;28;20024;-75
2023/05/24 05:21:16;;;;;;;7.22;5.20;;;;;;;;;;5090462;28;20020;-75
2023/05/24 05:23:41;;;;;;;8.65;5.13;;;;;;;;;;5090859;28;20165;-76
2023/05/24 05:26:07;;;;;;;8.82;5.25;;;;;;;;;;5091005;28;20065;-75
2023/05/24 05:28:32;;;;;;;9.07;5.18;;;;;;;;;;5090544;28;20023;-75
2023/05/24 05:30:58;;;;;;;8.00;5.32;;;;;;;;;;5091062;28;20024;-74
2023/05/24 05:33:23;;;;;;;7.30;4.90;;;;;;;;;;5091158;28;20028;-76
2023/05/24 05:35:49;;;;;;;10.10;5.57;;;;;;;;;;5091493;28;20088;-75
2023/05/24 05:38:15;;;;;;;8.82;5.70;;;;;;;;;;5089553;28;20031;-76
2023/05/24 05:40:40;;;;;;;9.27;5.82;;;;;;;;;;5091077;28;20020;-77
2023/05/24 05:43:07;;;;;;;11.50;5.60;;;;;;;;;;5091024;28;20016;-75
2023/05/24 05:45:32;;;;;;;7.80;5.40;;;;;;;;;;5092540;28;20097;-74
2023/05/24 05:47:58;;;;;;;8.70;5.43;;;;;;;;;;5091011;28;20027;-76
2023/05/24 05:50:23;;;;;;;9.48;6.25;;;;;;;;;;5092690;28;20031;-77
2023/05/24 05:52:48;;;;;;;9.98;6.40;;;;;;;;;;5094447;28;20035;-74
2023/05/24 05:55:14;;;;;;;10.55;6.68;;;;;;;;;;5090877;28;20499;-75
2023/05/24 05:57:40;;;;;;;10.52;5.82;;;;;;;;;;5089747;28;20032;-74
2023/05/24 06:00:07;;;;;;;11.88;5.72;;;;;;;;;;5099400;28;20027;-74
2023/05/24 06:02:32;;;;;;;10.68;6.65;;;;;;;;;;5102470;28;20100;-74
2023/05/24 06:04:58;;;;;;;10.48;6.28;;;;;;;;;;5100015;28;20040;-71
2023/05/24 06:07:24;;;;;;;10.18;6.00;;;;;;;;;;5102010;28;20019;-76
2023/05/24 06:09:49;;;;;;;12.98;6.90;;;;;;;;;;5102307;28;20084;-74
2023/05/24 06:12:15;;;;;;;10.40;6.47;;;;;;;;;;5093961;28;20089;-75
2023/05/24 06:14:40;;;;;;;9.65;6.05;;;;;;;;;;5097535;28;20089;-76
2023/05/24 06:17:06;;;;;;;10.65;6.43;;;;;;;;;;5092574;28;20039;-77
2023/05/24 06:19:31;;;;;;;7.97;5.70;;;;;;;;;;5090564;28;20023;-76
2023/05/24 06:21:57;;;;;;;8.05;5.95;;;;;;;;;;5092649;28;20028;-75
2023/05/24 06:24:23;;;;;;;10.32;5.95;;;;;;;;;;5094288;28;20020;-78
2023/05/24 06:26:50;;;;;;;9.82;6.53;;;;;;;;;;5098488;28;20028;-74
2023/05/24 06:29:19;;;;;;;9.02;6.40;;;;;;;;;;5091133;28;20028;-75
2023/05/24 06:31:46;;;;;;;9.18;6.20;;;;;;;;;;5091876;28;20047;-75
2023/05/24 06:34:12;;;;;;;9.77;6.07;;;;;;;;;;5092896;28;20158;-76
2023/05/24 06:36:40;;;;;;;10.05;5.75;;;;;;;;;;5090334;28;20484;-79
2023/05/24 06:39:05;;;;;;;8.75;6.50;;;;;;;;;;5090175;28;20224;-78
2023/05/24 06:41:31;;;;;;;8.90;6.28;;;;;;;;;;5090612;28;20036;-78
2023/05/24 06:43:56;;;;;;;10.30;6.38;;;;;;;;;;5083813;28;20090;-75
2023/05/24 06:46:21;;;;;;;9.13;6.20;;;;;;;;;;5081534;28;20346;-77
2023/05/24 06:48:47;;;;;;;8.68;6.30;;;;;;;;;;5099982;28;20138;-78
2023/05/24 06:51:12;;;;;;;8.85;6.07;;;;;;;;;;5100725;28;20024;-76
2023/05/24 06:53:38;;;;;;;9.45;6.13;;;;;;;;;;5096929;28;20028;-76
2023/05/24 06:56:04;;;;;;;9.32;6.00;;;;;;;;;;5101263;28;20073;-75
2023/05/24 06:58:29;;;;;;;10.82;6.00;;;;;;;;;;5101357;28;20016;-76
2023/05/24 07:00:54;;;;;;;9.25;6.28;;;;;;;;;;5101376;28;20300;-74
2023/05/24 07:03:20;;;;;;;10.18;6.65;;;;;;;;;;5101257;28;20024;-76
2023/05/24 07:05:45;;;;;;;9.32;5.75;;;;;;;;;;5101429;28;20031;-76
2023/05/24 07:08:11;;;;;;;10.52;6.15;;;;;;;;;;5097940;28;20016;-77
2023/05/24 07:10:36;;;;;;;10.68;6.25;;;;;;;;;;5100660;28;20312;-75
2023/05/24 07:13:02;;;;;;;10.02;6.45;;;;;;;;;;5100164;28;20095;-76
2023/05/24 07:15:28;;;;;;;10.77;6.15;;;;;;;;;;5096530;28;20032;-77
2023/05/24 07:17:53;;;;;;;9.00;6.03;;;;;;;;;;5089982;28;20081;-75
2023/05/24 07:20:18;;;;;;;9.75;6.50;;;;;;;;;;5098713;28;20122;-76
2023/05/24 07:22:44;;;;;;;9.35;6.63;;;;;;;;;;5090082;28;20031;-77
2023/05/24 07:25:09;;;;;;;10.57;6.60;;;;;;;;;;5087486;28;20084;-74
2023/05/24 07:27:35;;;;;;;13.55;7.10;;;;;;;;;;5090447;28;20028;-75
2023/05/24 07:30:01;;;;;;;11.77;6.47;;;;;;;;;;5090164;28;20714;-74
2023/05/24 07:32:28;;;;;;;10.93;6.40;;;;;;;;;;5089166;28;20117;-75
2023/05/24 07:34:53;;;;;;;11.38;6.60;;;;;;;;;;5098093;28;20039;-74
2023/05/24 07:37:19;;;;;;;10.30;6.82;;;;;;;;;;5097879;28;20020;-75
2023/05/24 07:39:44;;;;;;;9.00;6.20;;;;;;;;;;5093484;28;20024;-76
2023/05/24 07:42:10;;;;;;;14.55;6.18;;;;;;;;;;5097358;28;21052;-75
2023/05/24 07:44:35;;;;;;;9.02;6.53;;;;;;;;;;5094829;28;20119;-77
2023/05/24 07:47:01;;;;;;;10.40;6.70;;;;;;;;;;5099774;28;20089;-80
2023/05/24 07:49:27;;;;;;;11.25;6.63;;;;;;;;;;5095328;28;20016;-77
2023/05/24 07:51:55;;;;;;;10.50;6.72;;;;;;;;;;5099716;28;20072;-78
2023/05/24 07:54:21;;;;;;;7.93;6.07;;;;;;;;;;5095061;28;20034;-82
2023/05/24 07:56:47;;;;;;;9.77;6.55;;;;;;;;;;5097386;28;20184;-74
2023/05/24 07:59:12;;;;;;;11.50;6.78;;;;;;;;;;5096376;28;20066;-78
2023/05/24 08:01:38;;;;;;;9.10;6.40;;;;;;;;;;5097626;28;20020;-79
2023/05/24 08:04:04;;;;;;;9.85;6.28;;;;;;;;;;5093209;28;20071;-79
2023/05/24 08:06:31;;;;;;;8.77;6.30;;;;;;;;;;5098483;28;20356;-79
2023/05/24 08:08:56;;;;;;;9.45;6.60;;;;;;;;;;5095426;28;20099;-80
2023/05/24 08:11:22;;;;;;;8.73;5.88;;;;;;;;;;5099212;28;20024;-81
2023/05/24 08:13:47;;;;;;;8.50;6.25;;;;;;;;;;5099997;28;20263;-73
2023/05/24 08:16:13;;;;;;;9.23;6.30;;;;;;;;;;5097571;28;20023;-82
2023/05/24 08:18:38;;;;;;;10.20;6.70;;;;;;;;;;5097824;28;20044;-82
2023/05/24 08:21:04;;;;;;;10.55;6.78;;;;;;;;;;5098179;28;20020;-76
2023/05/24 08:23:29;;;;;;;11.27;6.63;;;;;;;;;;5092912;28;20016;-75
2023/05/24 08:25:58;;;;;;;9.50;6.80;;;;;;;;;;5095575;28;20044;-82
2023/05/24 08:28:25;;;;;;;11.18;6.90;;;;;;;;;;5097345;28;20028;-81
2023/05/24 08:30:51;;;;;;;9.13;6.95;;;;;;;;;;5090372;28;20071;-81
2023/05/24 08:33:16;;;;;;;8.90;6.50;;;;;;;;;;5094827;28;20186;-79
2023/05/24 08:35:42;;;;;;;11.07;6.88;;;;;;;;;;5091311;28;20054;-76
2023/05/24 08:38:08;;;;;;;10.77;6.60;;;;;;;;;;5095006;28;20047;-73
2023/05/24 08:40:33;;;;;;;10.27;6.95;;;;;;;;;;5099577;28;20323;-73
2023/05/24 08:43:00;;;;;;;12.20;7.18;;;;;;;;;;5102221;28;20024;-73
2023/05/24 08:45:28;;;;;;;11.27;7.35;;;;;;;;;;5103798;28;20027;-74
2023/05/24 08:47:54;;;;;;;12.82;7.28;;;;;;;;;;5102704;28;20342;-73
2023/05/24 08:50:20;;;;;;;10.82;7.13;;;;;;;;;;5103740;28;20016;-75
2023/05/24 08:52:47;;;;;;;11.95;7.15;;;;;;;;;;5098043;28;20020;-81
2023/05/24 08:55:13;;;;;;;9.18;6.72;;;;;;;;;;5098826;28;20020;-81
2023/05/24 08:57:40;;;;;;;12.80;7.30;;;;;;;;;;5103883;28;20032;-85
2023/05/24 09:00:10;;;;;;;11.98;7.55;;;;;;;;;;5098342;28;20024;-86
2023/05/24 09:02:38;;;;;;;10.68;7.40;;;;;;;;;;5103837;28;20023;-78
2023/05/24 09:05:07;;;;;;;10.32;7.38;;;;;;;;;;5094536;28;20051;-80
2023/05/24 09:07:33;;;;;;;12.70;8.13;;;;;;;;;;5102835;28;20073;-85
2023/05/24 09:10:06;;;;;;;13.98;7.40;;;;;;;;;;5098445;28;20032;-83
2023/05/24 09:12:32;;;;;;;12.18;8.40;;;;;;;;;;5086754;28;20480;-80
2023/05/24 09:14:58;;;;;;;11.35;7.72;;;;;;;;;;5086660;28;20330;-79
2023/05/24 09:17:24;;;;;;;12.55;8.23;;;;;;;;;;5081207;28;20029;-78
2023/05/24 09:19:51;;;;;;;11.65;7.68;;;;;;;;;;5069590;28;20029;-83
2023/05/24 09:22:19;;;;;;;11.52;7.95;;;;;;;;;;5071345;28;20622;-76
2023/05/24 09:24:48;;;;;;;12.95;7.93;;;;;;;;;;5072455;28;20020;-79
2023/05/24 09:27:16;;;;;;;12.68;7.50;;;;;;;;;;5075247;28;20362;-78
2023/05/24 09:29:42;;;;;;;11.40;7.53;;;;;;;;;;5073184;28;20493;-74
2023/05/24 09:32:08;;;;;;;11.77;7.60;;;;;;;;;;5080134;28;20029;-79
2023/05/24 09:34:41;;;;;;;12.07;7.75;;;;;;;;;;5097020;28;20143;-80
2023/05/24 09:37:27;;;;;;;12.95;7.85;;;;;;;;;;5080418;28;20020;-75
2023/05/24 09:39:54;;;;;;;11.85;8.13;;;;;;;;;;5073026;28;20028;-81
2023/05/24 09:42:23;;;;;;;12.68;7.97;;;;;;;;;;5088122;28;20028;-78
2023/05/24 09:45:06;;;;;;;11.30;8.02;;;;;;;;;;5075518;28;20029;-75
2023/05/24 09:47:33;;;;;;;14.60;8.30;;;;;;;;;;5076665;28;20017;-82
2023/05/24 09:50:03;;;;;;;11.35;7.65;;;;;;;;;;5081158;28;20028;-78
2023/05/24 09:52:28;;;;;;;15.93;8.43;;;;;;;;;;5081863;28;20027;-79
2023/05/24 09:54:54;;;;;;;11.35;7.65;;;;;;;;;;5081113;28;20024;-78
2023/05/24 09:57:22;;;;;;;13.55;8.25;;;;;;;;;;5081367;28;20308;-78
2023/05/24 09:59:49;;;;;;;11.98;7.78;;;;;;;;;;5082408;28;20035;-81
2023/05/24 10:02:17;;;;;;;10.52;6.68;;;;;;;;;;5082299;28;20024;-77
2023/05/24 10:04:43;;;;;;;10.93;7.13;;;;;;;;;;5080346;28;20041;-88
2023/05/24 10:07:11;;;;;;;12.23;7.32;;;;;;;;;;5072030;28;20029;-76
2023/05/24 10:09:37;;;;;;;10.02;6.95;;;;;;;;;;5070643;28;20032;-78
2023/05/24 10:12:07;;;;;;;11.05;7.32;;;;;;;;;;5072928;28;20025;-75
2023/05/24 10:14:36;;;;;;;;;;;;;;;;;;5092029;28;20096;-75
2023/05/24 10:17:04;;;;;;;10.80;7.07;;;;;;;;;;5089178;28;19919;-75
2023/05/24 10:19:30;;;;;;;10.50;7.55;;;;;;;;;;5087602;28;20081;-75
2023/05/24 10:21:57;;;;;;;10.98;7.18;;;;;;;;;;5086840;28;20028;-75
2023/05/24 10:24:26;;;;;;;11.73;6.97;;;;;;;;;;5087796;28;20032;-75
2023/05/24 10:26:53;;;;;;;9.82;6.68;;;;;;;;;;5088233;28;20020;-76
2023/05/24 10:29:47;;;;;;;10.05;6.82;;;;;;;;;;5088893;28;20036;-75
2023/05/24 10:32:17;;;;;;;11.13;6.70;;;;;;;;;;5089403;28;20028;-76
2023/05/24 10:34:45;;;;;;;11.05;7.03;;;;;;;;;;5090559;28;20016;-74
2023/05/24 10:37:10;;;;;;;9.65;6.05;;;;;;;;;;5088746;28;20032;-75
2023/05/24 10:39:36;;;;;;;10.10;6.75;;;;;;;;;;5105817;28;20031;-75
2023/05/24 10:42:03;;;;;;;8.73;6.45;;;;;;;;;;5088785;28;20602;-75
2023/05/24 10:44:30;;;;;;;8.65;6.50;;;;;;;;;;5105502;28;20042;-74
2023/05/24 10:47:09;;;;;;;9.55;6.80;;;;;;;;;;5089889;28;20047;-76
2023/05/24 10:49:35;;;;;;;10.77;6.75;;;;;;;;;;5090308;28;20024;-74
2023/05/24 10:52:06;;;;;;;12.50;7.07;;;;;;;;;;5089327;28;20389;-75
2023/05/24 10:54:31;;;;;;;9.32;6.85;;;;;;;;;;5090130;28;20124;-75
2023/05/24 10:57:03;;;;;;;11.50;6.45;;;;;;;;;;5089660;28;20480;-75
2023/05/24 10:59:30;;;;;;;11.35;7.00;;;;;;;;;;5089713;28;20396;-75
2023/05/24 11:01:57;;;;;;;10.40;6.97;;;;;;;;;;5089427;28;20038;-75
2023/05/24 11:04:24;;;;;;;11.82;7.60;;;;;;;;;;5089734;28;20078;-74
2023/05/24 11:07:00;;;;;;;10.07;7.15;;;;;;;;;;5089245;28;20114;-74
2023/05/24 11:09:26;;;;;;;10.63;7.28;;;;;;;;;;5088458;28;20063;-75
2023/05/24 11:12:00;;;;;;;11.68;7.30;;;;;;;;;;5089449;28;20036;-74
2023/05/24 11:14:28;;;;;;;11.40;7.05;;;;;;;;;;5089740;28;20077;-75
2023/05/24 11:16:54;;;;;;;11.02;7.03;;;;;;;;;;5089249;28;20024;-75
2023/05/24 11:19:22;;;;;;;11.27;7.32;;;;;;;;;;5089649;28;20064;-75
2023/05/24 11:21:49;;;;;;;11.93;7.63;;;;;;;;;;5088661;28;20020;-75
2023/05/24 11:24:16;;;;;;;13.18;7.70;;;;;;;;;;5089205;28;20031;-75
2023/05/24 11:26:42;;;;;;;17.45;7.95;;;;;;;;;;5087822;28;20560;-75
2023/05/24 11:29:08;;;;;;;14.77;8.45;;;;;;;;;;5089564;28;20041;-74
2023/05/24 11:31:38;;;;;;;17.30;8.23;;;;;;;;;;5089357;28;20024;-75
2023/05/24 11:34:04;;;;;;;13.30;8.70;;;;;;;;;;5088993;28;20028;-74
2023/05/24 11:36:31;;;;;;;11.85;8.45;;;;;;;;;;5088584;28;20574;-75
2023/05/24 11:38:57;;;;;;;14.20;8.60;;;;;;;;;;5089141;28;20032;-74
2023/05/24 11:41:23;;;;;;;12.50;8.15;;;;;;;;;;5089129;28;20035;-75
2023/05/24 11:43:48;;;;;;;12.18;8.10;;;;;;;;;;5089020;28;20024;-75
2023/05/24 11:46:15;;;;;;;12.20;8.40;;;;;;;;;;5088901;28;20119;-75
2023/05/24 11:48:40;;;;;;;12.55;8.18;;;;;;;;;;5089193;28;20553;-74
2023/05/24 11:51:05;;;;;;;12.57;8.63;;;;;;;;;;5088309;28;20031;-75
2023/05/24 11:53:31;;;;;;;12.48;7.45;;;;;;;;;;5088730;28;20103;-74
2023/05/24 11:55:56;;;;;;;13.80;8.50;;;;;;;;;;5088883;28;20027;-75
2023/05/24 11:58:47;;;;;;;14.90;8.98;;;;;;;;;;5088913;28;20024;-74
2023/05/24 12:01:30;;;;;;;;;;;;;;;;;;5089166;28;20059;-74
2023/05/24 12:03:56;;;;;;;12.52;8.27;;;;;;;;;;5088579;28;19916;-74
2023/05/24 12:06:21;;;;;;;13.07;8.02;;;;;;;;;;5088083;28;20399;-75
2023/05/24 12:08:48;;;;;;;15.88;8.82;;;;;;;;;;5088581;28;20095;-75
2023/05/24 12:11:14;;;;;;;13.80;8.52;;;;;;;;;;5088299;28;20031;-74
2023/05/24 12:13:40;;;;;;;14.07;8.57;;;;;;;;;;5088131;28;20028;-75
2023/05/24 12:16:06;;;;;;;12.57;8.30;;;;;;;;;;5088706;28;20034;-75
2023/05/24 12:18:32;;;;;;;12.88;8.57;;;;;;;;;;5088679;28;20048;-75
2023/05/24 12:20:58;;;;;;;14.32;8.50;;;;;;;;;;5088719;28;20083;-74
2023/05/24 12:23:26;;;;;;;14.55;9.13;;;;;;;;;;5088042;28;20056;-75
2023/05/24 12:26:00;;;;;;;14.20;8.75;;;;;;;;;;5088500;28;20028;-74
2023/05/24 12:28:27;;;;;;;14.95;9.05;;;;;;;;;;5088279;28;20028;-74
2023/05/24 12:30:52;;;;;;;14.07;8.95;;;;;;;;;;5087765;28;20462;-74
2023/05/24 12:33:19;;;;;;;17.25;9.13;;;;;;;;;;5087716;28;20763;-75
2023/05/24 12:35:46;;;;;;;13.45;8.70;;;;;;;;;;5088072;28;20016;-74
2023/05/24 12:38:11;;;;;;;13.32;9.13;;;;;;;;;;5087437;28;20140;-74
2023/05/24 12:40:42;;;;;;;14.02;9.23;;;;;;;;;;5087986;28;20037;-74
2023/05/24 12:43:09;;;;;;;;;;;;;;;;;;5087866;28;20464;-75
2023/05/24 12:45:35;;;;;;;15.32;8.20;;;;;;;;;;5087519;28;19912;-75
2023/05/24 12:48:03;;;;;;;13.75;8.30;;;;;;;;;;5086344;28;20020;-75
2023/05/24 12:50:29;;;;;;;13.10;8.68;;;;;;;;;;5087644;28;20395;-76
2023/05/24 12:52:55;;;;;;;14.98;8.63;;;;;;;;;;5087079;28;20012;-74
2023/05/24 12:55:25;;;;;;;12.38;8.30;;;;;;;;;;5087778;28;20035;-75
2023/05/24 12:57:54;;;;;;;14.32;8.93;;;;;;;;;;5087714;28;20036;-75
2023/05/24 13:00:27;;;;;;;14.48;8.68;;;;;;;;;;5087978;28;20567;-75
2023/05/24 13:02:57;;;;;;;12.45;8.68;;;;;;;;;;5087816;28;20020;-75
2023/05/24 13:05:25;;;;;;;14.57;8.70;;;;;;;;;;5087792;28;20041;-75
2023/05/24 13:07:51;;;;;;;15.80;9.15;;;;;;;;;;5087821;28;20020;-75
2023/05/24 13:10:18;;;;;;;13.30;8.52;;;;;;;;;;5088282;28;20042;-75
2023/05/24 13:12:44;;;;;;;14.07;8.38;;;;;;;;;;5086394;28;20031;-75
2023/05/24 13:15:09;;;;;;;11.95;8.27;;;;;;;;;;5088163;28;20012;-75
2023/05/24 13:17:35;;;;;;;13.95;8.82;;;;;;;;;;5087978;28;20050;-75
2023/05/24 13:20:06;;;;;;;12.00;8.68;;;;;;;;;;5088072;28;20575;-74
2023/05/24 13:22:36;;;;;;;12.80;8.13;;;;;;;;;;5087453;28;20488;-74
2023/05/24 13:25:02;;;;;;;11.80;8.32;;;;;;;;;;5089402;28;20044;-75
2023/05/24 13:27:28;;;;;;;14.35;8.35;;;;;;;;;;5091584;28;20111;-75
2023/05/24 13:29:54;;;;;;;12.65;8.63;;;;;;;;;;5092009;28;20448;-75
2023/05/24 13:32:20;;;;;;;16.88;8.55;;;;;;;;;;5092393;28;20028;-75
2023/05/24 13:34:45;;;;;;;13.60;8.73;;;;;;;;;;5089016;28;20012;-75
2023/05/24 13:37:11;;;;;;;14.77;8.57;;;;;;;;;;5090482;28;20069;-74
2023/05/24 13:39:37;;;;;;;13.38;8.77;;;;;;;;;;5086838;28;20518;-75
2023/05/24 13:42:03;;;;;;;12.73;8.38;;;;;;;;;;5090971;28;20528;-77
2023/05/24 13:44:29;;;;;;;12.68;8.98;;;;;;;;;;5090705;28;20035;-81
2023/05/24 13:46:55;;;;;;;14.77;9.25;;;;;;;;;;5095138;28;20024;-77
2023/05/24 13:49:21;;;;;;;15.75;9.23;;;;;;;;;;5095848;28;20111;-78
2023/05/24 13:51:47;;;;;;;16.45;9.63;;;;;;;;;;5100361;28;20028;-78
2023/05/24 13:54:12;;;;;;;14.80;9.15;;;;;;;;;;5097141;28;20507;-80
2023/05/24 13:56:38;;;;;;;13.52;9.60;;;;;;;;;;5093983;28;20085;-79
2023/05/24 13:59:05;;;;;;;16.15;9.25;;;;;;;;;;5090545;28;20494;-78
2023/05/24 14:01:31;;;;;;;17.42;9.60;;;;;;;;;;5091078;28;20028;-79
2023/05/24 14:03:57;;;;;;;16.95;9.50;;;;;;;;;;5090077;28;20492;-77
2023/05/24 14:06:23;;;;;;;14.50;9.60;;;;;;;;;;5088405;28;20096;-77
2023/05/24 14:08:48;;;;;;;14.63;9.35;;;;;;;;;;5091432;28;20024;-77
2023/05/24 14:11:14;;;;;;;14.75;9.13;;;;;;;;;;5090027;28;20024;-80
2023/05/24 14:13:40;;;;;;;13.80;9.45;;;;;;;;;;5089624;28;20020;-76
2023/05/24 14:16:07;;;;;;;18.00;9.43;;;;;;;;;;5090095;28;20035;-77
2023/05/24 14:18:32;;;;;;;14.35;9.82;;;;;;;;;;5089922;28;20027;-77
2023/05/24 14:20:58;;;;;;;17.45;9.70;;;;;;;;;;5088471;28;20049;-77
2023/05/24 14:23:23;;;;;;;14.07;10.10;;;;;;;;;;5089251;28;20542;-80
2023/05/24 14:25:50;;;;;;;15.55;9.57;;;;;;;;;;5089644;28;20059;-80
2023/05/24 14:28:17;;;;;;;18.80;10.05;;;;;;;;;;5089603;28;20016;-76
2023/05/24 14:30:42;;;;;;;14.40;9.57;;;;;;;;;;5088207;28;20016;-80
2023/05/24 14:33:10;;;;;;;19.08;9.93;;;;;;;;;;5089240;28;20026;-81
2023/05/24 14:35:39;;;;;;;16.05;9.90;;;;;;;;;;5089061;28;20024;-77
2023/05/24 14:38:05;;;;;;;17.40;9.10;;;;;;;;;;5088776;28;20028;-76